Time;durP1;ratioP1;P1;durP2;ratioP2;P2;SDS_P1;SDS_P2;PMS_P1;PMS_P2;Temp;Humidity;BMP_temperature;BMP_pressure;BME280_temperature;BME280_humidity;BME280_pressure;Samples;Min_cycle;Max_cycle;Signal;HPM_P1;HPM_P2
2022/03/15 00:00:16;;;;;;;;;;;6.10;99.90;;;;;;5135680;27;19957;-72
2022/03/15 00:02:41;;;;;;;;;;;4.90;99.90;;;;;;5117552;27;19976;-69
2022/03/15 00:05:07;;;;;;;;;;;6.30;99.90;;;;;;5117766;27;19972;-71
2022/03/15 00:07:32;;;;;;;;;;;4.80;99.90;;;;;;5135628;27;19934;-71
2022/03/15 00:09:59;;;;;;;;;;;6.10;99.90;;;;;;5135649;27;19966;-71
2022/03/15 00:12:25;;;;;;;;;;;4.90;99.90;;;;;;5135560;27;19974;-68
2022/03/15 00:14:52;;;;;;;;;;;4.70;99.90;;;;;;5135481;27;20406;-69
2022/03/15 00:17:18;;;;;;;;;;;6.60;99.90;;;;;;5135405;27;19931;-71
2022/03/15 00:19:43;;;;;;;;;;;4.70;99.90;;;;;;5135509;27;19923;-71
2022/03/15 00:22:09;;;;;;;;;;;5.70;99.90;;;;;;5135403;27;19976;-69
2022/03/15 00:24:35;;;;;;;;;;;4.70;99.90;;;;;;5135334;27;19928;-69
2022/03/15 00:27:01;;;;;;;;;;;5.50;99.90;;;;;;5135136;27;19952;-69
2022/03/15 00:29:26;;;;;;;;;;;4.60;99.90;;;;;;5135194;27;19930;-69
2022/03/15 00:31:52;;;;;;;;;;;4.60;99.90;;;;;;5135109;27;19924;-68
2022/03/15 00:34:17;;;;;;;;;;;4.60;99.90;;;;;;5135314;27;19960;-72
2022/03/15 00:36:43;;;;;;;;;;;4.60;99.90;;;;;;5117175;27;19930;-73
2022/03/15 00:39:09;;;;;;;;;;;5.00;99.90;;;;;;5151513;27;20374;-69
2022/03/15 00:41:34;;;;;;;;;;;5.70;99.90;;;;;;5151462;27;19923;-72
2022/03/15 00:44:00;;;;;;;;;;;5.30;99.90;;;;;;5150325;27;20043;-69
2022/03/15 00:46:26;;;;;;;;;;;5.10;99.90;;;;;;5134919;27;19924;-69
2022/03/15 00:48:52;;;;;;;;;;;4.60;99.90;;;;;;5116165;27;20417;-69
2022/03/15 00:51:17;;;;;;;;;;;5.20;99.90;;;;;;5135164;27;19923;-69
2022/03/15 00:53:43;;;;;;;;;;;5.50;99.90;;;;;;5135029;27;19949;-71
2022/03/15 00:56:08;;;;;;;;;;;5.20;99.90;;;;;;5135039;27;20013;-69
2022/03/15 00:58:34;;;;;;;;;;;5.10;99.90;;;;;;5134774;27;19927;-69
2022/03/15 01:01:00;;;;;;;;;;;4.60;99.90;;;;;;5134724;27;19978;-70
2022/03/15 01:03:25;;;;;;;;;;;4.60;99.90;;;;;;5116589;28;19930;-69
2022/03/15 01:05:51;;;;;;;;;;;4.70;99.90;;;;;;5151291;27;19930;-72
2022/03/15 01:08:17;;;;;;;;;;;4.40;99.90;;;;;;5134760;27;20044;-69
2022/03/15 01:10:43;;;;;;;;;;;4.60;99.90;;;;;;5134771;28;19967;-71
2022/03/15 01:13:09;;;;;;;;;;;4.60;99.90;;;;;;5135354;27;20026;-68
2022/03/15 01:15:44;;;;;;;;;;;6.20;99.90;;;;;;5141460;27;20014;-70
2022/03/15 01:18:10;;;;;;;;;;;4.60;99.90;;;;;;5141466;27;19928;-68
2022/03/15 01:20:40;;;;;;;;;;;5.30;99.90;;;;;;5141659;27;19948;-71
2022/03/15 01:23:06;;;;;;;;;;;4.60;99.90;;;;;;5141422;27;20023;-69
2022/03/15 01:25:32;;;;;;;;;;;5.70;99.90;;;;;;5141313;27;19930;-70
2022/03/15 01:27:57;;;;;;;;;;;4.50;99.90;;;;;;5141376;27;20006;-70
2022/03/15 01:30:23;;;;;;;;;;;4.50;99.90;;;;;;5141318;27;20366;-69
2022/03/15 01:32:49;;;;;;;;;;;4.40;99.90;;;;;;5141245;27;19923;-69
2022/03/15 01:35:14;;;;;;;;;;;4.70;99.90;;;;;;5141505;27;19930;-69
2022/03/15 01:37:40;;;;;;;;;;;4.60;99.90;;;;;;5123306;27;19924;-69
2022/03/15 01:40:06;;;;;;;;;;;4.40;99.90;;;;;;5157759;27;19975;-69
2022/03/15 01:42:31;;;;;;;;;;;4.40;99.90;;;;;;5141198;27;20256;-70
2022/03/15 01:44:57;;;;;;;;;;;4.90;99.90;;;;;;5123175;27;19928;-69
2022/03/15 01:47:22;;;;;;;;;;;4.40;99.90;;;;;;5157501;27;19984;-72
2022/03/15 01:49:48;;;;;;;;;;;6.00;99.90;;;;;;5141028;27;19923;-70
2022/03/15 01:52:15;;;;;;;;;;;4.40;99.90;;;;;;5141207;27;19923;-69
2022/03/15 01:54:41;;;;;;;;;;;5.80;99.90;;;;;;5141164;27;19975;-68
2022/03/15 01:57:08;;;;;;;;;;;4.40;99.90;;;;;;5123064;27;19972;-69
2022/03/15 01:59:35;;;;;;;;;;;4.30;99.90;;;;;;5141123;27;20316;-68
2022/03/15 02:02:00;;;;;;;;;;;4.60;99.90;;;;;;5140038;27;19923;-69
2022/03/15 02:04:26;;;;;;;;;;;5.20;99.90;;;;;;5140946;27;19927;-69
2022/03/15 02:07:00;;;;;;;;;;;5.10;99.90;;;;;;5122746;27;19923;-72
2022/03/15 02:09:26;;;;;;;;;;;2.80;99.90;;;;;;5141035;27;19923;-69
2022/03/15 02:11:51;;;;;;;;;;;5.20;99.90;;;;;;5140967;27;19924;-69
2022/03/15 02:14:17;;;;;;;;;;;4.00;99.90;;;;;;5105732;27;19928;-69
2022/03/15 02:16:42;;;;;;;;;;;4.00;99.90;;;;;;5122827;27;20018;-72
2022/03/15 02:19:08;;;;;;;;;;;4.40;99.90;;;;;;5140885;27;19980;-72
2022/03/15 02:21:37;;;;;;;;;;;4.00;99.90;;;;;;5122714;27;20306;-69
2022/03/15 02:24:03;;;;;;;;;;;5.00;99.90;;;;;;5140949;27;19923;-69
2022/03/15 02:26:28;;;;;;;;;;;4.00;99.90;;;;;;5136671;27;20386;-71
2022/03/15 02:28:54;;;;;;;;;;;4.00;99.90;;;;;;5119226;27;19962;-69
2022/03/15 02:31:20;;;;;;;;;;;4.00;99.90;;;;;;5153650;27;19931;-69
2022/03/15 02:33:46;;;;;;;;;;;4.60;99.90;;;;;;5153753;27;19923;-71
2022/03/15 02:36:12;;;;;;;;;;;4.00;99.90;;;;;;5137645;27;19924;-68
2022/03/15 02:38:37;;;;;;;;;;;4.00;99.90;;;;;;5119271;27;19946;-72
2022/03/15 02:41:03;;;;;;;;;;;4.60;99.90;;;;;;5137377;27;20371;-70
2022/03/15 02:43:29;;;;;;;;;;;4.00;99.90;;;;;;5153652;27;19971;-72
2022/03/15 02:45:54;;;;;;;;;;;4.00;99.90;;;;;;5137305;27;19930;-69
2022/03/15 02:48:20;;;;;;;;;;;2.30;99.90;;;;;;5136994;27;19923;-69
2022/03/15 02:50:46;;;;;;;;;;;3.90;99.90;;;;;;5118835;27;19970;-68
2022/03/15 02:53:12;;;;;;;;;;;3.90;99.90;;;;;;5118883;27;19923;-68
2022/03/15 02:55:38;;;;;;;;;;;4.50;99.90;;;;;;5153477;27;19923;-68
2022/03/15 02:58:03;;;;;;;;;;;3.90;99.90;;;;;;5137190;27;19968;-69
2022/03/15 03:00:29;;;;;;;;;;;3.90;99.90;;;;;;5136933;27;19927;-69
2022/03/15 03:02:55;;;;;;;;;;;5.00;99.90;;;;;;5136843;27;19923;-69
2022/03/15 03:05:21;;;;;;;;;;;3.80;99.90;;;;;;5136813;27;19934;-72
2022/03/15 03:07:46;;;;;;;;;;;3.80;99.90;;;;;;5136789;27;19923;-69
2022/03/15 03:10:12;;;;;;;;;;;3.80;99.90;;;;;;5118801;27;19930;-73
2022/03/15 03:12:41;;;;;;;;;;;4.80;99.90;;;;;;5118724;27;19923;-67
2022/03/15 03:15:11;;;;;;;;;;;3.90;99.90;;;;;;5136764;27;20014;-69
2022/03/15 03:17:38;;;;;;;;;;;2.30;99.90;;;;;;5136638;27;19980;-69
2022/03/15 03:20:06;;;;;;;;;;;4.20;99.90;;;;;;5136630;27;20647;-69
2022/03/15 03:22:32;;;;;;;;;;;3.90;99.90;;;;;;5118050;27;20408;-69
2022/03/15 03:24:57;;;;;;;;;;;3.90;99.90;;;;;;5136678;27;20023;-69
2022/03/15 03:27:23;;;;;;;;;;;3.90;99.90;;;;;;5136475;27;19923;-68
2022/03/15 03:29:49;;;;;;;;;;;5.00;99.90;;;;;;5136458;27;19962;-70
2022/03/15 03:32:14;;;;;;;;;;;5.20;99.90;;;;;;5136315;27;19931;-69
2022/03/15 03:34:40;;;;;;;;;;;3.90;99.90;;;;;;5152634;27;20074;-72
2022/03/15 03:37:06;;;;;;;;;;;4.20;99.90;;;;;;5136047;27;19927;-70
2022/03/15 03:39:32;;;;;;;;;;;3.90;99.90;;;;;;5152722;27;19924;-70
2022/03/15 03:41:58;;;;;;;;;;;4.00;99.90;;;;;;5117810;27;20301;-71
2022/03/15 03:44:23;;;;;;;;;;;3.90;99.90;;;;;;5136179;27;19923;-69
2022/03/15 03:46:49;;;;;;;;;;;4.00;99.90;;;;;;5136074;27;20294;-70
2022/03/15 03:49:14;;;;;;;;;;;4.30;99.90;;;;;;5152152;27;19978;-68
2022/03/15 03:51:40;;;;;;;;;;;5.40;99.90;;;;;;5136330;27;19927;-69
2022/03/15 03:54:06;;;;;;;;;;;5.00;99.90;;;;;;5136066;27;20378;-73
2022/03/15 03:56:33;;;;;;;;;;;4.60;99.90;;;;;;5135995;27;20291;-69
2022/03/15 03:58:59;;;;;;;;;;;5.20;99.90;;;;;;5152264;27;19924;-70
2022/03/15 04:01:24;;;;;;;;;;;5.20;99.90;;;;;;5135748;27;19923;-69
2022/03/15 04:03:50;;;;;;;;;;;4.50;99.90;;;;;;5135629;27;19923;-69
2022/03/15 04:06:16;;;;;;;;;;;4.00;99.90;;;;;;5135896;27;19923;-69
2022/03/15 04:08:46;;;;;;;;;;;4.00;99.90;;;;;;5117505;27;20379;-68
2022/03/15 04:11:11;;;;;;;;;;;5.40;99.90;;;;;;5135621;27;19923;-68
2022/03/15 04:13:41;;;;;;;;;;;5.10;99.90;;;;;;5135586;27;20466;-70
2022/03/15 04:16:07;;;;;;;;;;;3.90;99.90;;;;;;5135494;27;20287;-68
2022/03/15 04:18:33;;;;;;;;;;;4.50;99.90;;;;;;5117224;27;20031;-68
2022/03/15 04:20:58;;;;;;;;;;;3.90;99.90;;;;;;5135605;27;19923;-69
2022/03/15 04:23:24;;;;;;;;;;;3.90;99.90;;;;;;5117047;27;19927;-69
2022/03/15 04:25:51;;;;;;;;;;;4.50;99.90;;;;;;5135262;27;20025;-69
2022/03/15 04:28:16;;;;;;;;;;;5.60;99.90;;;;;;5135326;27;19924;-69
2022/03/15 04:30:42;;;;;;;;;;;5.10;99.90;;;;;;5151450;27;20414;-70
2022/03/15 04:33:08;;;;;;;;;;;4.80;99.90;;;;;;5135149;27;19930;-70
2022/03/15 04:35:34;;;;;;;;;;;4.40;99.90;;;;;;5135024;27;19923;-69
2022/03/15 04:38:00;;;;;;;;;;;3.80;99.90;;;;;;5135259;27;19977;-70
2022/03/15 04:40:25;;;;;;;;;;;5.30;99.90;;;;;;5133794;27;19967;-69
2022/03/15 04:42:54;;;;;;;;;;;4.50;99.90;;;;;;5135097;27;19923;-68
2022/03/15 04:45:20;;;;;;;;;;;3.80;99.90;;;;;;5135045;27;19976;-71
2022/03/15 04:47:46;;;;;;;;;;;3.80;99.90;;;;;;5134645;27;19923;-68
2022/03/15 04:50:12;;;;;;;;;;;3.80;99.90;;;;;;5134546;27;20031;-68
2022/03/15 04:52:38;;;;;;;;;;;3.80;99.90;;;;;;5135083;27;19976;-68
2022/03/15 04:55:05;;;;;;;;;;;4.40;99.90;;;;;;5116873;27;19923;-68
2022/03/15 04:57:31;;;;;;;;;;;3.90;99.90;;;;;;5134916;27;19974;-72
2022/03/15 04:59:57;;;;;;;;;;;3.90;99.90;;;;;;5134859;27;19931;-70
2022/03/15 05:02:23;;;;;;;;;;;5.00;99.90;;;;;;5134770;27;19923;-68
2022/03/15 05:04:49;;;;;;;;;;;4.00;99.90;;;;;;5134658;27;19931;-71
2022/03/15 05:07:15;;;;;;;;;;;4.00;99.90;;;;;;5134590;27;19924;-71
2022/03/15 05:11:06;;;;;;;;;;;4.00;99.90;;;;;;5150891;27;19923;-71
2022/03/15 05:12:26;;;;;;;;;;;4.00;99.90;;;;;;5134571;28;20422;-68
2022/03/15 05:14:52;;;;;;;;;;;4.00;99.90;;;;;;5134658;28;19975;-69
2022/03/15 05:17:19;;;;;;;;;;;4.10;99.90;;;;;;5116586;28;20374;-72
2022/03/15 05:19:46;;;;;;;;;;;5.60;99.90;;;;;;5116427;28;19933;-69
2022/03/15 05:22:12;;;;;;;;;;;4.10;99.90;;;;;;5109727;28;19924;-69
2022/03/15 05:24:38;;;;;;;;;;;4.00;99.90;;;;;;5114009;28;20065;-68
2022/03/15 05:27:03;;;;;;;;;;;5.10;99.90;;;;;;5113917;28;19969;-68
2022/03/15 05:29:29;;;;;;;;;;;4.00;99.90;;;;;;5095851;28;20467;-68
2022/03/15 05:31:55;;;;;;;;;;;5.20;99.90;;;;;;5113897;28;19946;-69
2022/03/15 05:34:20;;;;;;;;;;;4.10;99.90;;;;;;5113843;28;19967;-68
2022/03/15 05:36:48;;;;;;;;;;;4.10;99.90;;;;;;5113977;28;19924;-69
2022/03/15 05:39:14;;;;;;;;;;;4.10;99.90;;;;;;5114060;28;20022;-69
2022/03/15 05:41:41;;;;;;;;;;;4.10;99.90;;;;;;5113994;28;19930;-72
2022/03/15 05:44:07;;;;;;;;;;;5.20;99.90;;;;;;5113878;28;19923;-69
2022/03/15 05:46:32;;;;;;;;;;;4.10;99.90;;;;;;5113801;28;19934;-70
2022/03/15 05:48:58;;;;;;;;;;;4.20;99.90;;;;;;5113586;28;19930;-69
2022/03/15 05:51:24;;;;;;;;;;;4.20;99.90;;;;;;5095666;28;19930;-71
2022/03/15 05:53:49;;;;;;;;;;;4.20;99.90;;;;;;5113974;28;19927;-69
2022/03/15 05:56:15;;;;;;;;;;;4.40;99.90;;;;;;5095608;28;20421;-70
2022/03/15 05:58:42;;;;;;;;;;;4.30;99.90;;;;;;5113744;28;19928;-69
2022/03/15 06:01:08;;;;;;;;;;;4.60;99.90;;;;;;5116831;28;19931;-69
2022/03/15 06:03:34;;;;;;;;;;;4.30;99.90;;;;;;5117487;28;20298;-68
2022/03/15 06:05:59;;;;;;;;;;;4.40;99.90;;;;;;5099466;28;19924;-69
2022/03/15 06:08:25;;;;;;;;;;;4.40;99.90;;;;;;5099382;28;19924;-68
2022/03/15 06:10:50;;;;;;;;;;;4.40;99.90;;;;;;5117470;28;20481;-69
2022/03/15 06:13:16;;;;;;;;;;;4.40;99.90;;;;;;5117385;28;19930;-72
2022/03/15 06:15:42;;;;;;;;;;;4.40;99.90;;;;;;5117315;28;20303;-71
2022/03/15 06:18:07;;;;;;;;;;;5.30;99.90;;;;;;5099347;28;19934;-70
2022/03/15 06:20:33;;;;;;;;;;;5.00;99.90;;;;;;5117058;28;19927;-69
2022/03/15 06:22:59;;;;;;;;;;;4.50;99.90;;;;;;5098994;28;19928;-69
2022/03/15 06:25:25;;;;;;;;;;;5.20;99.90;;;;;;5117028;28;19931;-69
2022/03/15 06:27:51;;;;;;;;;;;6.20;99.90;;;;;;5116901;28;20371;-70
2022/03/15 06:30:17;;;;;;;;;;;4.50;99.90;;;;;;5098896;28;19923;-71
2022/03/15 06:32:43;;;;;;;;;;;4.60;99.90;;;;;;5117033;28;19924;-69
2022/03/15 06:35:10;;;;;;;;;;;4.50;99.90;;;;;;5116896;28;20303;-68
2022/03/15 06:37:39;;;;;;;;;;;4.20;99.90;;;;;;5117036;28;19931;-69
2022/03/15 06:40:06;;;;;;;;;;;5.00;99.90;;;;;;5116981;28;19923;-67
2022/03/15 06:42:32;;;;;;;;;;;4.70;99.90;;;;;;5116983;28;19923;-69
2022/03/15 06:44:58;;;;;;;;;;;4.70;99.90;;;;;;5116824;28;19931;-70
2022/03/15 06:47:23;;;;;;;;;;;4.60;99.90;;;;;;5116626;28;19924;-69
2022/03/15 06:49:49;;;;;;;;;;;4.70;99.90;;;;;;5116626;28;20015;-69
2022/03/15 06:52:15;;;;;;;;;;;5.90;99.90;;;;;;5098669;28;20286;-70
2022/03/15 06:54:40;;;;;;;;;;;4.80;99.90;;;;;;5116661;28;19976;-69
2022/03/15 06:57:06;;;;;;;;;;;4.70;99.90;;;;;;5116563;28;19927;-68
2022/03/15 06:59:32;;;;;;;;;;;5.30;99.90;;;;;;5116557;28;19928;-73
2022/03/15 07:01:59;;;;;;;;;;;4.90;99.90;;;;;;5116365;28;19928;-70
2022/03/15 07:04:25;;;;;;;;;;;5.60;99.90;;;;;;5116365;28;19923;-70
2022/03/15 07:06:50;;;;;;;;;;;5.20;99.90;;;;;;5098422;28;19934;-68
2022/03/15 07:09:16;;;;;;;;;;;4.90;99.90;;;;;;5116406;28;19931;-71
2022/03/15 07:11:42;;;;;;;;;;;6.00;99.90;;;;;;5097733;28;20366;-68
2022/03/15 07:14:07;;;;;;;;;;;4.90;99.90;;;;;;5116381;28;19928;-69
2022/03/15 07:16:33;;;;;;;;;;;4.90;99.90;;;;;;5116281;28;20015;-69
2022/03/15 07:18:58;;;;;;;;;;;5.00;99.90;;;;;;5116005;28;19931;-71
2022/03/15 07:21:24;;;;;;;;;;;6.00;99.90;;;;;;5116351;28;19924;-71
2022/03/15 07:23:49;;;;;;;;;;;5.00;99.90;;;;;;5115714;28;19923;-72
2022/03/15 07:26:15;;;;;;;;;;;5.00;99.90;;;;;;5115994;28;20361;-73
2022/03/15 07:28:41;;;;;;;;;;;5.00;99.90;;;;;;5115916;28;19934;-69
2022/03/15 07:31:06;;;;;;;;;;;5.10;99.90;;;;;;5115958;28;20368;-69
2022/03/15 07:33:32;;;;;;;;;;;6.10;99.90;;;;;;5115832;28;19927;-68
2022/03/15 07:36:01;;;;;;;;;;;5.40;99.90;;;;;;5080655;28;20014;-72
2022/03/15 07:38:27;;;;;;;;;;;5.20;99.90;;;;;;5115626;28;20044;-69
2022/03/15 07:40:53;;;;;;;;;;;5.20;99.90;;;;;;5097514;28;19928;-70
2022/03/15 07:43:22;;;;;;;;;;;5.80;99.90;;;;;;5115767;28;19924;-70
2022/03/15 07:45:47;;;;;;;;;;;5.30;99.90;;;;;;5115627;28;19928;-70
2022/03/15 07:48:13;;;;;;;;;;;5.40;99.90;;;;;;5115415;28;19924;-69
2022/03/15 07:50:39;;;;;;;;;;;5.40;99.90;;;;;;5115630;28;19953;-70
2022/03/15 07:53:05;;;;;;;;;;;5.40;99.90;;;;;;5097463;28;20371;-68
2022/03/15 07:55:31;;;;;;;;;;;5.50;99.90;;;;;;5115423;28;19924;-69
2022/03/15 07:57:56;;;;;;;;;;;5.50;99.90;;;;;;5115535;28;19982;-69
2022/03/15 08:00:22;;;;;;;;;;;5.60;99.90;;;;;;5115185;28;20314;-68
2022/03/15 08:02:47;;;;;;;;;;;5.60;99.90;;;;;;5115207;28;19935;-71
2022/03/15 08:05:13;;;;;;;;;;;5.70;99.90;;;;;;5097240;28;19931;-72
2022/03/15 08:07:39;;;;;;;;;;;4.30;99.90;;;;;;5114979;28;20415;-69
2022/03/15 08:10:05;;;;;;;;;;;5.70;99.90;;;;;;5115252;28;19947;-69
2022/03/15 08:12:31;;;;;;;;;;;5.80;99.90;;;;;;5096901;28;20294;-71
2022/03/15 08:14:57;;;;;;;;;;;6.20;99.90;;;;;;5115053;28;19935;-69
2022/03/15 08:17:22;;;;;;;;;;;5.80;99.90;;;;;;5115012;28;19924;-68
2022/03/15 08:19:48;;;;;;;;;;;6.70;99.90;;;;;;5096884;28;19924;-69
2022/03/15 08:22:13;;;;;;;;;;;6.50;99.90;;;;;;5114733;28;19924;-69
2022/03/15 08:24:39;;;;;;;;;;;6.00;99.90;;;;;;5113880;28;19932;-69
2022/03/15 08:27:05;;;;;;;;;;;6.00;99.90;;;;;;5114779;28;20047;-69
2022/03/15 08:29:31;;;;;;;;;;;6.00;99.90;;;;;;5114839;28;20014;-71
2022/03/15 08:31:57;;;;;;;;;;;6.00;99.90;;;;;;5114876;28;20320;-70
2022/03/15 08:34:23;;;;;;;;;;;6.50;99.90;;;;;;5114713;28;19924;-69
2022/03/15 08:36:49;;;;;;;;;;;6.60;99.90;;;;;;5114614;28;19976;-69
2022/03/15 08:39:15;;;;;;;;;;;6.10;99.90;;;;;;5079587;28;19927;-71
2022/03/15 08:41:42;;;;;;;;;;;6.20;99.90;;;;;;5096344;28;20037;-69
2022/03/15 08:44:08;;;;;;;;;;;6.20;99.90;;;;;;5114627;28;19927;-72
2022/03/15 08:46:33;;;;;;;;;;;6.30;99.90;;;;;;5114542;28;20014;-69
2022/03/15 08:48:59;;;;;;;;;;;6.30;99.90;;;;;;5096053;28;20026;-69
2022/03/15 08:51:25;;;;;;;;;;;6.80;99.90;;;;;;5096048;28;19924;-69
2022/03/15 08:53:50;;;;;;;;;;;6.60;99.90;;;;;;5114260;28;20378;-70
2022/03/15 08:56:16;;;;;;;;;;;6.40;99.90;;;;;;5114436;28;19974;-69
2022/03/15 08:58:42;;;;;;;;;;;7.40;99.90;;;;;;5096506;28;20500;-72
2022/03/15 09:01:07;;;;;;;;;;;6.50;99.90;;;;;;5114395;28;19927;-69
2022/03/15 09:03:33;;;;;;;;;;;6.40;99.90;;;;;;5096414;28;20010;-69
2022/03/15 09:05:58;;;;;;;;;;;6.50;99.90;;;;;;5114176;28;19977;-69
2022/03/15 09:08:24;;;;;;;;;;;6.50;99.90;;;;;;5114066;28;19930;-69
2022/03/15 09:10:49;;;;;;;;;;;7.70;99.90;;;;;;5114299;28;19924;-70
2022/03/15 09:13:15;;;;;;;;;;;6.50;99.90;;;;;;5114248;28;19931;-71
2022/03/15 09:15:41;;;;;;;;;;;6.60;99.90;;;;;;5114191;28;20371;-69
2022/03/15 09:18:07;;;;;;;;;;;6.60;99.90;;;;;;5114323;28;20010;-69
2022/03/15 09:20:33;;;;;;;;;;;6.60;99.90;;;;;;5114279;28;19928;-67
2022/03/15 09:22:59;;;;;;;;;;;7.10;99.90;;;;;;5095725;28;19923;-69
2022/03/15 09:25:25;;;;;;;;;;;7.40;99.90;;;;;;5113813;28;20358;-69
2022/03/15 09:27:51;;;;;;;;;;;6.70;99.90;;;;;;5114075;28;19924;-69
2022/03/15 09:30:17;;;;;;;;;;;6.70;99.90;;;;;;5096185;28;20304;-69
2022/03/15 09:32:42;;;;;;;;;;;6.70;99.90;;;;;;5114171;28;19923;-69
2022/03/15 09:35:08;;;;;;;;;;;7.00;99.90;;;;;;5115544;28;20465;-68
2022/03/15 09:37:34;;;;;;;;;;;5.20;99.90;;;;;;5100119;28;20324;-71
2022/03/15 09:39:59;;;;;;;;;;;6.80;99.90;;;;;;5117898;28;19930;-70
2022/03/15 09:42:28;;;;;;;;;;;7.70;99.90;;;;;;5118164;28;19931;-69
2022/03/15 09:44:56;;;;;;;;;;;7.80;99.90;;;;;;5118075;28;19968;-72
2022/03/15 09:47:23;;;;;;;;;;;6.90;99.90;;;;;;5117831;28;19923;-73
2022/03/15 09:49:52;;;;;;;;;;;7.30;99.90;;;;;;5099570;28;19931;-72
2022/03/15 09:52:18;;;;;;;;;;;7.10;99.90;;;;;;5099514;28;19952;-69
2022/03/15 09:54:44;;;;;;;;;;;7.40;99.90;;;;;;5099777;28;19924;-70
2022/03/15 09:57:09;;;;;;;;;;;7.00;99.90;;;;;;5117791;28;20401;-71
2022/03/15 09:59:35;;;;;;;;;;;7.00;99.90;;;;;;5099856;28;19923;-69
2022/03/15 10:02:00;;;;;;;;;;;7.00;99.90;;;;;;5117592;28;20350;-72
2022/03/15 10:04:27;;;;;;;;;;;7.10;99.90;;;;;;5117606;28;19924;-69
2022/03/15 10:06:53;;;;;;;;;;;8.50;99.90;;;;;;5117518;28;19969;-70
2022/03/15 10:09:20;;;;;;;;;;;7.20;99.90;;;;;;5117388;28;20297;-69
2022/03/15 10:11:45;;;;;;;;;;;7.20;99.90;;;;;;5117633;28;20003;-69
2022/03/15 10:14:11;;;;;;;;;;;7.50;99.90;;;;;;5117458;28;19924;-71
2022/03/15 10:16:41;;;;;;;;;;;7.40;99.90;;;;;;5117444;28;20397;-70
2022/03/15 10:19:08;;;;;;;;;;;7.10;99.90;;;;;;5117373;28;19924;-70
2022/03/15 10:21:37;;;;;;;;;;;7.30;99.90;;;;;;5099058;28;20003;-72
2022/03/15 10:24:05;;;;;;;;;;;7.30;99.90;;;;;;5098470;28;19970;-70
2022/03/15 10:26:31;;;;;;;;;;;7.30;99.90;;;;;;5117211;28;19976;-71
2022/03/15 10:28:56;;;;;;;;;;;7.40;99.90;;;;;;5117160;28;19923;-70
2022/03/15 10:31:23;;;;;;;;;;;7.40;99.90;;;;;;5117031;28;19991;-70
2022/03/15 10:33:50;;;;;;;;;;;7.40;99.90;;;;;;5098794;28;20424;-72
2022/03/15 10:36:19;;;;;;;;;;;7.40;99.90;;;;;;5116978;28;19946;-67
2022/03/15 10:38:48;;;;;;;;;;;6.00;99.90;;;;;;5116822;28;20294;-69
2022/03/15 10:41:15;;;;;;;;;;;7.40;99.90;;;;;;5116987;28;19930;-71
2022/03/15 10:43:41;;;;;;;;;;;7.80;99.90;;;;;;5098304;28;20396;-73
2022/03/15 10:46:09;;;;;;;;;;;7.40;99.90;;;;;;5097767;28;19924;-69
2022/03/15 10:48:35;;;;;;;;;;;6.90;99.90;;;;;;5098489;28;19931;-68
2022/03/15 10:51:14;;;;;;;;;;;7.50;99.90;;;;;;5116427;28;20451;-72
2022/03/15 10:53:41;;;;;;;;;;;7.50;99.90;;;;;;5116866;28;20375;-69
2022/03/15 10:56:10;;;;;;;;;;;7.60;99.90;;;;;;5116652;28;20422;-72
2022/03/15 10:58:43;;;;;;;;;;;7.70;99.90;;;;;;5098720;28;20356;-69
2022/03/15 11:01:09;;;;;;;;;;;7.80;99.90;;;;;;5098581;28;19923;-69
2022/03/15 11:03:35;;;;;;;;;;;7.80;99.90;;;;;;5098249;28;19930;-69
2022/03/15 11:06:08;;;;;;;;;;;7.80;99.90;;;;;;5098338;28;20030;-71
2022/03/15 11:08:36;;;;;;;;;;;6.70;99.90;;;;;;5098316;28;19923;-69
2022/03/15 11:11:10;;;;;;;;;;;7.90;99.90;;;;;;5116344;28;20271;-70
2022/03/15 11:13:36;;;;;;;;;;;8.00;99.90;;;;;;5116260;28;20290;-69
2022/03/15 11:16:04;;;;;;;;;;;8.10;99.90;;;;;;5116304;28;19946;-70
2022/03/15 11:18:31;;;;;;;;;;;9.20;99.90;;;;;;5116130;28;19924;-70
2022/03/15 11:20:58;;;;;;;;;;;8.40;99.90;;;;;;5115843;28;19935;-69
2022/03/15 11:23:25;;;;;;;;;;;9.10;99.90;;;;;;5097743;28;19923;-73
2022/03/15 11:26:09;;;;;;;;;;;8.40;99.90;;;;;;5115974;28;19924;-69
2022/03/15 11:28:39;;;;;;;;;;;8.50;99.90;;;;;;5115873;28;19923;-69
2022/03/15 11:31:04;;;;;;;;;;;8.50;99.90;;;;;;5115914;28;20423;-69
2022/03/15 11:33:31;;;;;;;;;;;8.60;99.90;;;;;;5097889;28;19924;-69
2022/03/15 11:35:59;;;;;;;;;;;9.20;99.90;;;;;;5097984;28;20434;-69
2022/03/15 11:38:25;;;;;;;;;;;8.70;99.90;;;;;;5097674;28;19931;-72
2022/03/15 11:40:54;;;;;;;;;;;8.90;99.90;;;;;;5115553;28;19924;-69
2022/03/15 11:43:23;;;;;;;;;;;8.80;99.90;;;;;;5097810;28;20006;-73
2022/03/15 11:46:03;;;;;;;;;;;8.80;99.90;;;;;;5115545;28;19923;-71
2022/03/15 11:48:29;;;;;;;;;;;8.30;99.90;;;;;;5115666;28;19923;-72
2022/03/15 11:51:10;;;;;;;;;;;9.10;99.90;;;;;;5115634;28;19969;-71
2022/03/15 11:54:08;;;;;;;;;;;9.00;99.90;;;;;;5115580;28;20018;-70
2022/03/15 11:56:38;;;;;;;;;;;9.00;99.90;;;;;;5035710;28;20011;-69
2022/03/15 11:59:04;;;;;;;;;;;9.10;99.90;;;;;;5052331;28;19931;-71
2022/03/15 12:01:33;;;;;;;;;;;9.10;99.90;;;;;;5052452;28;20007;-69
2022/03/15 12:03:59;;;;;;;;;;;9.80;99.90;;;;;;5052483;28;20028;-69
2022/03/15 12:06:26;;;;;;;;;;;9.60;99.90;;;;;;5052278;28;19925;-70
2022/03/15 12:08:53;;;;;;;;;;;9.20;99.90;;;;;;5035715;28;19925;-70
2022/03/15 12:11:29;;;;;;;;;;;9.30;99.90;;;;;;5035861;28;19932;-68
2022/03/15 12:14:05;;;;;;;;;;;9.20;99.90;;;;;;5052186;28;20321;-72
2022/03/15 12:16:47;;;;;;;;;;;9.30;99.90;;;;;;5035925;28;20378;-69
2022/03/15 12:19:35;;;;;;;;;;;9.30;99.90;;;;;;5052141;28;19925;-69
2022/03/15 12:22:03;;;;;;;;;;;9.30;99.90;;;;;;5051952;28;19932;-69
2022/03/15 12:24:30;;;;;;;;;;;9.60;99.90;;;;;;5052138;28;19932;-71
2022/03/15 12:27:00;;;;;;;;;;;9.50;99.90;;;;;;5051903;28;19924;-68
2022/03/15 12:29:27;;;;;;;;;;;9.50;99.90;;;;;;5051916;28;19971;-68
2022/03/15 12:31:53;;;;;;;;;;;9.50;99.90;;;;;;5055185;28;19932;-69
2022/03/15 12:34:19;;;;;;;;;;;9.50;99.90;;;;;;5091250;28;19928;-71
2022/03/15 12:36:59;;;;;;;;;;;10.20;99.90;;;;;;5114820;28;19982;-69
2022/03/15 12:39:26;;;;;;;;;;;9.50;99.90;;;;;;5114702;28;20412;-70
2022/03/15 12:42:04;;;;;;;;;;;9.60;99.90;;;;;;5114614;28;19924;-69
2022/03/15 12:44:40;;;;;;;;;;;9.50;99.90;;;;;;5114517;28;19969;-70
2022/03/15 12:47:06;;;;;;;;;;;9.60;99.90;;;;;;5114494;28;19927;-71
2022/03/15 12:49:32;;;;;;;;;;;9.60;99.90;;;;;;5111761;28;19923;-70
2022/03/15 12:52:08;;;;;;;;;;;9.60;99.90;;;;;;5087720;28;20291;-70
2022/03/15 12:54:34;;;;;;;;;;;9.60;99.90;;;;;;5113917;28;19923;-68
2022/03/15 12:57:06;;;;;;;;;;;9.60;99.90;;;;;;5096373;28;19930;-70
2022/03/15 12:59:32;;;;;;;;;;;9.60;99.90;;;;;;5096353;28;19923;-70
2022/03/15 13:01:58;;;;;;;;;;;10.30;99.90;;;;;;5114441;28;20021;-69
2022/03/15 13:04:24;;;;;;;;;;;9.70;99.90;;;;;;5114392;28;19928;-70
2022/03/15 13:06:50;;;;;;;;;;;9.70;99.90;;;;;;5114345;28;19976;-69
2022/03/15 13:09:25;;;;;;;;;;;9.70;99.90;;;;;;5095421;28;19923;-69
2022/03/15 13:11:52;;;;;;;;;;;9.70;99.90;;;;;;5114136;28;20389;-69
2022/03/15 13:14:22;;;;;;;;;;;9.70;99.90;;;;;;5114016;28;19950;-70
2022/03/15 13:16:47;;;;;;;;;;;9.80;99.90;;;;;;5114277;28;19980;-70
2022/03/15 13:19:24;;;;;;;;;;;9.80;99.90;;;;;;5096090;28;20030;-71
2022/03/15 13:21:50;;;;;;;;;;;9.80;99.90;;;;;;5087120;28;19924;-71
2022/03/15 13:24:16;;;;;;;;;;;9.90;99.90;;;;;;5113943;28;19923;-70
2022/03/15 13:26:41;;;;;;;;;;;9.90;99.90;;;;;;5095889;28;19931;-69
2022/03/15 13:29:13;;;;;;;;;;;9.90;99.90;;;;;;5114163;28;19923;-73
2022/03/15 13:31:40;;;;;;;;;;;10.00;99.90;;;;;;5113882;28;20379;-73
2022/03/15 13:34:08;;;;;;;;;;;10.10;99.90;;;;;;5096129;28;20010;-72
2022/03/15 13:36:34;;;;;;;;;;;10.30;99.90;;;;;;5113916;28;19923;-70
2022/03/15 13:39:05;;;;;;;;;;;10.20;99.90;;;;;;5079160;28;20006;-69
2022/03/15 13:41:41;;;;;;;;;;;10.50;99.90;;;;;;5113761;28;20006;-72
2022/03/15 13:44:12;;;;;;;;;;;10.40;99.90;;;;;;5113994;28;19979;-69
2022/03/15 13:46:39;;;;;;;;;;;10.40;99.90;;;;;;5113912;28;19969;-69
2022/03/15 13:49:05;;;;;;;;;;;10.50;99.90;;;;;;5113814;28;19928;-69
2022/03/15 13:51:35;;;;;;;;;;;10.50;99.90;;;;;;5113791;28;19931;-72
2022/03/15 13:54:07;;;;;;;;;;;10.90;99.90;;;;;;5113722;28;19931;-70
2022/03/15 13:56:43;;;;;;;;;;;9.50;99.90;;;;;;5113875;28;19928;-70
2022/03/15 13:59:09;;;;;;;;;;;10.70;99.90;;;;;;5113830;28;19924;-68
2022/03/15 14:01:40;;;;;;;;;;;10.80;99.90;;;;;;5113731;28;19924;-69
2022/03/15 14:04:08;;;;;;;;;;;10.90;99.90;;;;;;5113707;28;19924;-68
2022/03/15 14:06:39;;;;;;;;;;;10.90;99.90;;;;;;5095403;28;20014;-70
2022/03/15 14:09:09;;;;;;;;;;;11.00;99.90;;;;;;5113692;28;19971;-70
2022/03/15 14:11:45;;;;;;;;;;;11.00;99.90;;;;;;5095863;28;19931;-70
2022/03/15 14:14:12;;;;;;;;;;;11.10;99.90;;;;;;5095538;28;19931;-70
2022/03/15 14:16:39;;;;;;;;;;;11.10;99.90;;;;;;5113571;28;19927;-70
2022/03/15 14:19:09;;;;;;;;;;;11.20;99.90;;;;;;5095409;28;19924;-69
2022/03/15 14:21:40;;;;;;;;;;;11.20;99.90;;;;;;5115492;28;19930;-69
2022/03/15 14:24:07;;;;;;;;;;;11.20;99.90;;;;;;5081673;28;19924;-71
2022/03/15 14:26:33;;;;;;;;;;;11.20;99.90;;;;;;5117089;28;19935;-70